Aérodrome :
LOGIN :

S'inscrire | Disclaimer

   EN    FR    IT 

 










Légende :    VFR   VFR Marginal   IFR   IFR Intensif   IFR Très Intensif
Visi : 
Plafond : 
>= 8 km
>= 3000ft
5 à 8 km
1000 à 3000 ft
1500m à 5 km
500 à 1000 ft
800 à 1500m
200 à 500 ft
< 800m
< 200 ft
Symboles :   Orages  Brouillard  Fortes neiges  Fortes précipitations  Vent > 20 kt
SIGMETs :   Divers  Orages  Givrage  Turbulence  Onde Orograph.  Cendres Volcan.






- Altitude de l'aérodrome : 202 ft
- Code IATA : LGW


EGKK - London Gatwick

DERNIER METAR :
  • 310850Z 05010KT CAVOK 21/10 Q1022

METARs EXPIRÉS :
  • 310820Z 07009KT CAVOK 20/11 Q1022
  • 310750Z 07009KT CAVOK 19/11 Q1022
  • 310720Z 07011KT CAVOK 17/11 Q1022
  • 310650Z 07010KT CAVOK 16/11 Q1022
  • 310620Z 07006KT CAVOK 15/11 Q1022

TAF TAF EGKK
Valide du 31 à 06h jusqu'au 01 à 12h UTC


310455Z 3106/0112 06009KT CAVOK
PROB30
TEMPO 3112/3119 07016G26KT



MET'MAP, la Météo Aéronautique d'un coup d'oeil ! - Copyright ORBIFLY Décembre 2007 - Disclaimer

ORBIFLY MET'MAP TEAM :

Programmation & Développement : Alexandra Zaïnal
Sur une idée originale de : Baudouin d'Aumeries
Assistance à la programmation : Marc-Olivier Méhu
Soutien technique & logistique : Manuel Goepfert

Contact : metmap@orbifly.com




SOURCES & CREDITS :

   NOAA